Time;durP1;ratioP1;P1;durP2;ratioP2;P2;SDS_P1;SDS_P2;PMS_P1;PMS_P2;Temp;Humidity;BMP_temperature;BMP_pressure;BME280_temperature;BME280_humidity;BME280_pressure;Samples;Min_cycle;Max_cycle;Signal;HPM_P1;HPM_P2
2023/06/29 00:01:02;;;;;;;15.80;9.40;;;20.50;99.90;;;;;;5058771;28;20049;-62
2023/06/29 00:03:31;;;;;;;14.02;8.88;;;20.40;99.90;;;;;;5063096;28;20076;-59
2023/06/29 00:05:59;;;;;;;12.30;8.73;;;20.40;99.90;;;;;;5056336;28;20084;-59
2023/06/29 00:08:27;;;;;;;12.88;9.13;;;20.40;99.90;;;;;;5063268;28;20059;-59
2023/06/29 00:10:55;;;;;;;13.23;8.80;;;20.30;99.90;;;;;;5046841;28;20068;-59
2023/06/29 00:13:22;;;;;;;18.05;9.13;;;20.40;99.90;;;;;;5060114;28;20411;-60
2023/06/29 00:15:49;;;;;;;13.70;8.80;;;20.40;99.90;;;;;;5039468;28;20048;-61
2023/06/29 00:18:18;;;;;;;12.35;8.55;;;20.40;99.90;;;;;;5060533;28;20049;-61
2023/06/29 00:20:45;;;;;;;19.60;9.27;;;20.50;99.90;;;;;;5060444;28;20056;-59
2023/06/29 00:23:11;;;;;;;13.10;8.43;;;20.50;99.90;;;;;;5060919;28;20044;-63
2023/06/29 00:25:39;;;;;;;11.85;8.55;;;20.40;99.90;;;;;;5065300;28;20055;-60
2023/06/29 00:28:06;;;;;;;14.32;8.60;;;20.40;99.90;;;;;;5065704;28;20040;-59
2023/06/29 00:30:33;;;;;;;15.48;8.95;;;20.40;99.90;;;;;;5067649;28;20056;-59
2023/06/29 00:32:59;;;;;;;14.98;8.23;;;20.40;99.90;;;;;;5067114;28;20049;-59
2023/06/29 00:35:26;;;;;;;14.02;9.00;;;20.40;99.90;;;;;;5067862;28;20071;-60
2023/06/29 00:37:53;;;;;;;12.63;8.60;;;20.40;99.90;;;;;;5067853;28;20049;-60
2023/06/29 00:40:20;;;;;;;15.43;9.20;;;20.30;99.90;;;;;;5068039;28;20094;-59
2023/06/29 00:42:47;;;;;;;13.25;8.48;;;20.40;99.90;;;;;;5067929;28;20156;-59
2023/06/29 00:45:14;;;;;;;11.52;7.65;;;20.40;99.90;;;;;;5068094;28;20051;-60
2023/06/29 00:47:40;;;;;;;14.57;8.55;;;20.40;99.90;;;;;;5067485;28;20044;-60
2023/06/29 00:50:08;;;;;;;13.05;8.15;;;20.50;99.90;;;;;;5050052;28;20048;-60
2023/06/29 00:52:34;;;;;;;14.40;9.60;;;20.50;99.90;;;;;;5033941;28;20044;-59
2023/06/29 00:55:01;;;;;;;15.43;9.02;;;20.50;99.90;;;;;;5068240;28;20044;-60
2023/06/29 00:57:29;;;;;;;15.73;9.13;;;20.50;99.90;;;;;;5033419;28;20582;-60
2023/06/29 00:59:59;;;;;;;12.63;8.30;;;20.60;99.90;;;;;;5069414;28;20500;-60
2023/06/29 01:02:29;;;;;;;14.15;8.20;;;20.60;99.90;;;;;;5071944;28;20305;-60
2023/06/29 01:04:57;;;;;;;13.60;9.20;;;20.50;99.90;;;;;;5043521;28;20057;-60
2023/06/29 01:07:26;;;;;;;15.13;9.77;;;20.50;99.90;;;;;;5071689;28;20522;-60
2023/06/29 01:09:53;;;;;;;16.77;9.50;;;20.40;99.90;;;;;;5071571;28;20052;-60
2023/06/29 01:12:20;;;;;;;16.15;9.48;;;20.40;99.90;;;;;;5054280;28;20404;-60
2023/06/29 01:14:47;;;;;;;14.68;9.32;;;20.40;99.90;;;;;;5054055;28;20434;-60
2023/06/29 01:17:15;;;;;;;13.93;8.77;;;20.20;99.90;;;;;;5053699;28;20051;-59
2023/06/29 01:19:43;;;;;;;18.40;10.02;;;20.10;99.90;;;;;;5071660;28;20044;-59
2023/06/29 01:22:14;;;;;;;17.02;10.00;;;20.10;99.90;;;;;;5071938;28;20045;-61
2023/06/29 01:24:41;;;;;;;16.85;9.93;;;19.90;99.90;;;;;;5071382;28;20052;-59
2023/06/29 01:27:08;;;;;;;17.02;10.57;;;19.80;99.90;;;;;;5071543;28;20053;-59
2023/06/29 01:29:35;;;;;;;19.23;10.57;;;19.70;99.90;;;;;;5071173;28;20490;-58
2023/06/29 01:32:03;;;;;;;17.73;10.57;;;19.70;99.90;;;;;;5071470;28;20048;-59
2023/06/29 01:34:31;;;;;;;18.88;11.38;;;19.60;99.90;;;;;;5071464;28;20045;-59
2023/06/29 01:37:09;;;;;;;15.15;10.07;;;19.60;99.90;;;;;;5053863;28;20242;-59
2023/06/29 01:40:00;;;;;;;17.92;10.55;;;19.70;99.90;;;;;;5054616;28;20048;-58
2023/06/29 01:42:28;;;;;;;17.83;10.57;;;19.70;99.90;;;;;;5071545;28;20075;-59
2023/06/29 01:44:54;;;;;;;14.90;10.73;;;19.80;99.90;;;;;;5053793;28;20059;-59
2023/06/29 01:47:21;;;;;;;24.55;11.45;;;19.80;99.90;;;;;;5071111;28;20094;-59
2023/06/29 01:49:48;;;;;;;21.77;11.27;;;19.90;99.90;;;;;;5053002;28;20128;-61
2023/06/29 01:52:15;;;;;;;16.70;10.23;;;19.90;99.90;;;;;;5070923;28;20067;-58
2023/06/29 01:54:42;;;;;;;15.82;11.07;;;19.90;99.90;;;;;;4701763;28;10000150;-58
2023/06/29 01:57:09;;;;;;;15.25;10.70;;;19.90;99.90;;;;;;5053064;28;20588;-59
2023/06/29 01:59:36;;;;;;;13.95;11.02;;;19.80;99.90;;;;;;5070582;28;20049;-59
2023/06/29 02:02:03;;;;;;;18.98;11.73;;;19.80;99.90;;;;;;5053396;28;20056;-59
2023/06/29 02:04:30;;;;;;;19.95;11.32;;;19.90;99.90;;;;;;5070623;28;20051;-59
2023/06/29 02:06:57;;;;;;;16.13;10.52;;;20.00;99.90;;;;;;5070681;28;20059;-59
2023/06/29 02:09:23;;;;;;;16.50;11.35;;;19.90;99.90;;;;;;5070214;28;20247;-59
2023/06/29 02:11:50;;;;;;;20.98;13.27;;;19.90;99.90;;;;;;5069371;28;20060;-59
2023/06/29 02:14:17;;;;;;;20.50;13.90;;;19.90;99.90;;;;;;5070743;28;20466;-59
2023/06/29 02:16:49;;;;;;;21.98;14.35;;;19.80;99.90;;;;;;5070139;28;20045;-59
2023/06/29 02:19:15;;;;;;;24.60;16.35;;;19.70;99.90;;;;;;5070749;28;20041;-59
2023/06/29 02:21:42;;;;;;;27.38;17.25;;;19.70;99.90;;;;;;5070328;28;20052;-59
2023/06/29 02:24:09;;;;;;;25.58;18.45;;;19.70;99.90;;;;;;5070410;28;20470;-59
2023/06/29 02:26:36;;;;;;;27.10;17.35;;;19.60;99.90;;;;;;5070344;28;20055;-59
2023/06/29 02:29:03;;;;;;;26.58;16.75;;;19.50;99.90;;;;;;5050425;28;20049;-59
2023/06/29 02:31:29;;;;;;;26.10;17.00;;;19.40;99.90;;;;;;5064470;28;20055;-60
2023/06/29 02:33:56;;;;;;;29.63;19.40;;;19.40;99.90;;;;;;5070353;28;20123;-60
2023/06/29 02:36:23;;;;;;;29.60;18.15;;;19.40;99.90;;;;;;5069869;28;20048;-59
2023/06/29 02:38:50;;;;;;;28.80;17.27;;;19.40;99.90;;;;;;5070293;28;20044;-60
2023/06/29 02:41:17;;;;;;;34.33;19.95;;;19.50;99.90;;;;;;5070510;28;20052;-59
2023/06/29 02:43:43;;;;;;;26.40;19.05;;;19.50;99.90;;;;;;5070534;28;20083;-59
2023/06/29 02:46:10;;;;;;;28.00;17.98;;;19.50;99.90;;;;;;5069257;28;20056;-60
2023/06/29 02:48:37;;;;;;;27.92;19.42;;;19.50;99.90;;;;;;5070013;28;20123;-60
2023/06/29 02:51:05;;;;;;;26.98;16.83;;;19.40;99.90;;;;;;5069867;28;20041;-60
2023/06/29 02:53:32;;;;;;;31.35;20.55;;;19.40;99.90;;;;;;5070386;28;20144;-60
2023/06/29 02:55:58;;;;;;;26.17;17.92;;;19.30;99.90;;;;;;5069810;28;20499;-60
2023/06/29 02:58:25;;;;;;;24.92;17.63;;;19.30;99.90;;;;;;5069877;28;20049;-60
2023/06/29 03:00:52;;;;;;;25.08;16.00;;;19.20;99.90;;;;;;5069911;28;20049;-59
2023/06/29 03:03:20;;;;;;;24.25;16.25;;;19.20;99.90;;;;;;5068604;28;20496;-59
2023/06/29 03:05:47;;;;;;;25.38;16.85;;;19.10;99.90;;;;;;5069998;28;20072;-59
2023/06/29 03:08:13;;;;;;;28.10;16.75;;;19.10;99.90;;;;;;5059327;28;20041;-60
2023/06/29 03:10:40;;;;;;;23.75;17.15;;;19.10;99.90;;;;;;5069729;28;20090;-60
2023/06/29 03:13:07;;;;;;;25.38;16.83;;;19.10;99.90;;;;;;5069387;28;20044;-59
2023/06/29 03:15:34;;;;;;;22.70;15.05;;;19.10;99.90;;;;;;5069263;28;20281;-64
2023/06/29 03:18:01;;;;;;;28.38;16.73;;;19.00;99.90;;;;;;5068897;28;20504;-59
2023/06/29 03:20:28;;;;;;;24.00;16.95;;;18.90;99.90;;;;;;5069713;28;20278;-59
2023/06/29 03:22:54;;;;;;;28.80;18.10;;;18.90;99.90;;;;;;5068997;28;20458;-59
2023/06/29 03:25:21;;;;;;;23.92;15.95;;;18.90;99.90;;;;;;5069310;28;20492;-59
2023/06/29 03:27:48;;;;;;;32.33;18.00;;;19.00;99.90;;;;;;5069477;28;20321;-60
2023/06/29 03:30:15;;;;;;;28.13;17.67;;;18.90;99.90;;;;;;5069460;28;20044;-60
2023/06/29 03:32:42;;;;;;;29.27;17.38;;;18.90;99.90;;;;;;5069028;28;20044;-58
2023/06/29 03:35:09;;;;;;;29.95;19.20;;;18.90;99.90;;;;;;5069460;28;20131;-59
2023/06/29 03:37:35;;;;;;;30.88;17.77;;;18.80;99.90;;;;;;5069040;28;20407;-59
2023/06/29 03:40:02;;;;;;;25.27;18.15;;;18.80;99.90;;;;;;5069185;28;20495;-59
2023/06/29 03:42:29;;;;;;;29.38;17.23;;;18.80;99.90;;;;;;5068908;28;20052;-59
2023/06/29 03:44:56;;;;;;;28.00;18.92;;;18.80;99.90;;;;;;5069106;28;20037;-59
2023/06/29 03:47:23;;;;;;;22.60;15.63;;;18.70;99.90;;;;;;5068025;28;20056;-60
2023/06/29 03:49:50;;;;;;;26.50;16.05;;;18.80;99.90;;;;;;5068699;28;20044;-58
2023/06/29 03:52:17;;;;;;;29.10;15.55;;;18.70;99.90;;;;;;5068899;28;20059;-59
2023/06/29 03:54:43;;;;;;;18.65;14.82;;;18.70;99.90;;;;;;5068538;28;20063;-59
2023/06/29 03:57:10;;;;;;;22.52;16.25;;;18.70;99.90;;;;;;5069113;28;20044;-59
2023/06/29 03:59:38;;;;;;;23.55;15.23;;;18.60;99.90;;;;;;5068578;28;20040;-59
2023/06/29 04:02:05;;;;;;;25.90;16.25;;;18.50;99.90;;;;;;5068669;28;20054;-59
2023/06/29 04:04:32;;;;;;;25.15;14.82;;;18.30;99.90;;;;;;5066484;28;20067;-59
2023/06/29 04:06:59;;;;;;;14.10;10.07;;;18.40;99.90;;;;;;5068037;28;20048;-60
2023/06/29 04:09:26;;;;;;;16.60;8.75;;;18.30;99.90;;;;;;5068313;28;20076;-60
2023/06/29 04:11:53;;;;;;;7.03;4.28;;;18.20;99.90;;;;;;5067002;28;20048;-60
2023/06/29 04:14:19;;;;;;;5.28;4.10;;;18.20;99.90;;;;;;5067437;28;20040;-61
2023/06/29 04:16:46;;;;;;;4.05;2.80;;;18.10;99.90;;;;;;5048735;28;20048;-60
2023/06/29 04:19:13;;;;;;;4.13;2.75;;;18.00;99.90;;;;;;5067298;28;20048;-60
2023/06/29 04:21:42;;;;;;;4.35;2.20;;;17.90;99.90;;;;;;5067841;28;20125;-61
2023/06/29 04:24:09;;;;;;;4.00;1.80;;;17.90;99.90;;;;;;5067856;28;20054;-61
2023/06/29 04:26:38;;;;;;;1.80;1.40;;;17.90;99.90;;;;;;5068371;28;20491;-61
2023/06/29 04:29:08;;;;;;;2.03;1.45;;;17.80;99.90;;;;;;5067935;28;20423;-61
2023/06/29 04:31:35;;;;;;;1.88;1.00;;;17.60;99.90;;;;;;5068516;28;20498;-61
2023/06/29 04:34:02;;;;;;;1.67;1.02;;;17.70;99.90;;;;;;5067277;28;20063;-61
2023/06/29 04:36:29;;;;;;;1.70;0.98;;;17.70;99.90;;;;;;5068105;28;20128;-63
2023/06/29 04:38:56;;;;;;;0.63;0.47;;;17.50;99.90;;;;;;5068538;28;20301;-61
2023/06/29 04:41:30;;;;;;;0.38;0.32;;;17.60;99.90;;;;;;5067862;28;20048;-61
2023/06/29 04:44:03;;;;;;;0.40;0.30;;;17.60;99.90;;;;;;5068187;28;20503;-61
2023/06/29 04:46:30;;;;;;;0.70;0.40;;;17.50;99.90;;;;;;5067333;28;20118;-62
2023/06/29 04:49:06;;;;;;;0.75;0.30;;;17.40;99.90;;;;;;5068240;28;20048;-61
2023/06/29 04:51:34;;;;;;;0.75;0.47;;;17.50;99.90;;;;;;5067315;28;20041;-61
2023/06/29 04:54:05;;;;;;;0.73;0.28;;;17.50;99.90;;;;;;5068048;28;20056;-61
2023/06/29 04:56:32;;;;;;;0.20;0.20;;;17.50;99.90;;;;;;5068250;28;20044;-61
2023/06/29 04:58:59;;;;;;;1.55;0.30;;;17.50;99.90;;;;;;5068158;28;20044;-61
2023/06/29 05:01:26;;;;;;;0.10;0.10;;;17.50;99.90;;;;;;5068142;28;20048;-61
2023/06/29 05:03:52;;;;;;;0.47;0.20;;;17.40;99.90;;;;;;5068052;28;20088;-61
2023/06/29 05:06:20;;;;;;;0.20;0.20;;;17.40;99.90;;;;;;5067487;28;20080;-61
2023/06/29 05:08:46;;;;;;;0.28;0.20;;;17.30;99.90;;;;;;5067931;28;20127;-61
2023/06/29 05:11:13;;;;;;;2.03;0.30;;;17.20;99.90;;;;;;5068013;28;20491;-60
2023/06/29 05:13:40;;;;;;;2.28;1.17;;;17.20;99.90;;;;;;5068040;28;20044;-60
2023/06/29 05:16:07;;;;;;;3.35;0.30;;;17.20;99.90;;;;;;5067015;28;20037;-59
2023/06/29 05:18:36;;;;;;;2.63;0.40;;;17.30;99.90;;;;;;5067339;28;20071;-60
2023/06/29 05:21:03;;;;;;;6.85;0.75;;;17.30;99.90;;;;;;5067845;28;20049;-61
2023/06/29 05:23:30;;;;;;;1.33;0.40;;;17.30;99.90;;;;;;5067404;28;20048;-61
2023/06/29 05:25:57;;;;;;;5.70;1.05;;;17.30;99.90;;;;;;5067760;28;20490;-61
2023/06/29 05:28:24;;;;;;;1.27;0.70;;;17.30;99.90;;;;;;5067878;28;20107;-61
2023/06/29 05:30:51;;;;;;;0.85;0.20;;;17.30;99.90;;;;;;5067734;28;20044;-61
2023/06/29 05:33:17;;;;;;;2.45;0.40;;;17.20;99.90;;;;;;5067407;28;20060;-61
2023/06/29 05:35:44;;;;;;;0.65;0.50;;;17.20;99.90;;;;;;5067991;28;20048;-61
2023/06/29 05:38:12;;;;;;;1.02;0.40;;;17.10;99.90;;;;;;5067464;28;20055;-62
2023/06/29 05:40:38;;;;;;;0.20;0.20;;;17.00;99.90;;;;;;5067707;28;20419;-61
2023/06/29 05:43:05;;;;;;;2.70;0.65;;;16.90;99.90;;;;;;5067285;28;20411;-61
2023/06/29 05:45:32;;;;;;;1.27;0.30;;;16.90;99.90;;;;;;5067473;28;20495;-63
2023/06/29 05:47:59;;;;;;;1.27;0.50;;;16.90;99.90;;;;;;5067859;28;20045;-62
2023/06/29 05:50:26;;;;;;;0.55;0.50;;;16.90;99.90;;;;;;5061672;28;20456;-62
2023/06/29 05:52:53;;;;;;;4.35;0.75;;;16.90;99.90;;;;;;5065631;28;20040;-60
2023/06/29 05:55:20;;;;;;;1.38;0.50;;;16.90;99.90;;;;;;5072230;28;20049;-61
2023/06/29 05:57:47;;;;;;;1.90;0.47;;;16.90;99.90;;;;;;5070149;28;20094;-61
2023/06/29 06:00:14;;;;;;;2.33;0.50;;;17.00;99.90;;;;;;5070253;28;20473;-62
2023/06/29 06:02:41;;;;;;;0.38;0.30;;;17.00;99.90;;;;;;5069556;28;20048;-62
2023/06/29 06:05:08;;;;;;;1.17;0.40;;;16.90;99.90;;;;;;5073094;28;20135;-62
2023/06/29 06:07:35;;;;;;;0.45;0.30;;;16.80;99.90;;;;;;5049953;28;20141;-61
2023/06/29 06:10:03;;;;;;;1.00;0.35;;;16.80;99.90;;;;;;5069184;28;20048;-62
2023/06/29 06:12:30;;;;;;;1.98;0.60;;;16.80;99.90;;;;;;5069101;28;20223;-62
2023/06/29 06:14:57;;;;;;;1.80;0.43;;;16.80;99.90;;;;;;5067654;28;20036;-62
2023/06/29 06:17:24;;;;;;;0.88;0.60;;;16.90;99.90;;;;;;5070385;28;20250;-62
2023/06/29 06:19:51;;;;;;;0.70;0.50;;;16.90;99.90;;;;;;5069139;28;20059;-61
2023/06/29 06:22:17;;;;;;;1.60;0.70;;;17.00;99.90;;;;;;5070910;28;20068;-61
2023/06/29 06:24:44;;;;;;;1.83;0.57;;;17.00;99.90;;;;;;5063884;28;20053;-61
2023/06/29 06:27:11;;;;;;;0.63;0.28;;;17.10;99.90;;;;;;5063689;28;20136;-62
2023/06/29 06:29:38;;;;;;;0.88;0.30;;;17.10;99.90;;;;;;5070287;28;20049;-60
2023/06/29 06:32:05;;;;;;;1.95;0.70;;;17.10;99.90;;;;;;5070318;28;20110;-61
2023/06/29 06:34:33;;;;;;;4.10;0.63;;;17.10;99.90;;;;;;5069899;28;20631;-61
2023/06/29 06:37:00;;;;;;;3.40;0.70;;;17.10;99.90;;;;;;5069759;28;20057;-60
2023/06/29 06:39:27;;;;;;;1.25;1.00;;;17.10;99.90;;;;;;5064698;28;20538;-59
2023/06/29 06:41:54;;;;;;;0.77;0.60;;;17.10;99.90;;;;;;5052501;28;20048;-60
2023/06/29 06:44:21;;;;;;;1.73;0.60;;;17.10;99.90;;;;;;5067938;28;20057;-60
2023/06/29 06:46:48;;;;;;;1.30;0.60;;;17.20;99.90;;;;;;5065774;28;20048;-60
2023/06/29 06:49:15;;;;;;;2.53;0.90;;;17.20;99.90;;;;;;5069620;28;20255;-60
2023/06/29 06:51:41;;;;;;;2.00;0.90;;;17.30;99.90;;;;;;5070183;28;20053;-58
2023/06/29 06:54:08;;;;;;;5.07;0.98;;;17.30;99.90;;;;;;5069198;28;20044;-59
2023/06/29 06:56:37;;;;;;;5.57;0.80;;;17.20;99.90;;;;;;5067508;28;20043;-59
2023/06/29 06:59:04;;;;;;;1.00;0.80;;;17.20;99.90;;;;;;5067284;28;20125;-60
2023/06/29 07:01:31;;;;;;;1.20;0.70;;;17.20;99.90;;;;;;5067860;28;20048;-59
2023/06/29 07:03:58;;;;;;;3.72;0.70;;;17.20;99.90;;;;;;5067410;28;20526;-60
2023/06/29 07:06:30;;;;;;;2.80;1.13;;;17.20;99.90;;;;;;5067430;28;20044;-60
2023/06/29 07:08:58;;;;;;;1.98;1.75;;;17.20;99.90;;;;;;5060587;28;20131;-60
2023/06/29 07:11:26;;;;;;;2.08;1.08;;;17.20;99.90;;;;;;5068033;28;20052;-60
2023/06/29 07:13:54;;;;;;;1.70;1.33;;;17.10;99.90;;;;;;5069581;28;20155;-60
2023/06/29 07:16:23;;;;;;;4.88;2.40;;;17.10;99.90;;;;;;5068369;28;20068;-60
2023/06/29 07:19:08;;;;;;;2.38;1.80;;;17.10;99.90;;;;;;5069004;28;20526;-59
2023/06/29 07:21:37;;;;;;;2.72;2.33;;;17.10;99.90;;;;;;5065990;28;20056;-59
2023/06/29 07:24:05;;;;;;;3.50;2.00;;;17.10;99.90;;;;;;5068952;28;20132;-59
2023/06/29 07:26:34;;;;;;;2.67;1.80;;;17.10;99.90;;;;;;5068169;28;20052;-59
2023/06/29 07:29:01;;;;;;;2.70;1.63;;;17.10;99.90;;;;;;5068658;28;20059;-59
2023/06/29 07:31:29;;;;;;;3.45;2.88;;;17.20;99.90;;;;;;5049052;28;20048;-60
2023/06/29 07:33:56;;;;;;;3.92;3.00;;;17.20;99.90;;;;;;5048339;28;20503;-60
2023/06/29 07:36:24;;;;;;;5.10;1.88;;;17.20;99.90;;;;;;5065412;28;20462;-61
2023/06/29 07:38:51;;;;;;;3.53;2.15;;;17.20;99.90;;;;;;5068131;28;20071;-61
2023/06/29 07:41:18;;;;;;;1.75;1.38;;;17.20;99.90;;;;;;5045000;28;20048;-61
2023/06/29 07:43:51;;;;;;;4.00;1.73;;;17.00;99.90;;;;;;5064283;28;20066;-61
2023/06/29 07:46:19;;;;;;;5.63;2.70;;;17.00;99.90;;;;;;5061768;28;20044;-60
2023/06/29 07:48:48;;;;;;;2.83;2.10;;;17.10;99.90;;;;;;5066731;28;20048;-59
2023/06/29 07:51:16;;;;;;;5.18;2.17;;;17.20;99.90;;;;;;5054559;28;20131;-59
2023/06/29 07:53:43;;;;;;;4.03;3.10;;;17.20;99.90;;;;;;5068301;28;20048;-60
2023/06/29 07:56:10;;;;;;;4.00;2.28;;;17.30;99.90;;;;;;5067766;28;20522;-59
2023/06/29 07:58:36;;;;;;;5.68;2.70;;;17.30;99.90;;;;;;5050095;28;20228;-59
2023/06/29 08:01:06;;;;;;;6.85;2.00;;;17.30;99.90;;;;;;5067849;28;20048;-60
2023/06/29 08:03:33;;;;;;;5.97;2.53;;;17.40;99.90;;;;;;5067829;28;20499;-60
2023/06/29 08:06:17;;;;;;;4.68;2.50;;;17.30;99.90;;;;;;5059161;28;20301;-60
2023/06/29 08:08:48;;;;;;;2.50;2.10;;;17.40;99.90;;;;;;5067317;28;20048;-59
2023/06/29 08:11:15;;;;;;;3.30;2.65;;;17.30;99.90;;;;;;5067931;28;20131;-62
2023/06/29 08:13:42;;;;;;;2.95;2.13;;;17.30;99.90;;;;;;5068018;28;20048;-59
2023/06/29 08:16:08;;;;;;;3.65;2.55;;;17.30;99.90;;;;;;5067902;28;20053;-60
2023/06/29 08:18:35;;;;;;;4.57;2.63;;;17.30;99.90;;;;;;5067735;28;20132;-60
2023/06/29 08:21:02;;;;;;;5.28;2.13;;;17.40;99.90;;;;;;5050132;28;20557;-60
2023/06/29 08:23:32;;;;;;;5.68;3.15;;;17.30;99.90;;;;;;5067481;28;20045;-59
2023/06/29 08:25:59;;;;;;;2.50;2.30;;;17.30;99.90;;;;;;5060139;28;20041;-59
2023/06/29 08:28:25;;;;;;;3.80;3.05;;;17.40;99.90;;;;;;5067228;28;20063;-60
2023/06/29 08:30:52;;;;;;;5.03;2.95;;;17.40;99.90;;;;;;5063543;28;20045;-60
2023/06/29 08:33:19;;;;;;;5.90;3.08;;;17.40;99.90;;;;;;5046301;28;20041;-60
2023/06/29 08:35:46;;;;;;;3.38;3.00;;;17.50;99.90;;;;;;5067748;28;20073;-61
2023/06/29 08:38:13;;;;;;;4.55;3.05;;;17.60;99.90;;;;;;5066947;28;20565;-60
2023/06/29 08:40:39;;;;;;;4.78;2.90;;;17.60;99.90;;;;;;5067619;28;20048;-59
2023/06/29 08:43:09;;;;;;;5.32;2.92;;;17.70;99.90;;;;;;5067184;28;20120;-59
2023/06/29 08:45:35;;;;;;;3.70;2.63;;;17.70;99.90;;;;;;5067768;28;20052;-59
2023/06/29 08:48:02;;;;;;;10.10;2.40;;;17.70;99.90;;;;;;5067594;28;20055;-60
2023/06/29 08:50:30;;;;;;;7.47;2.58;;;17.80;99.90;;;;;;5050239;28;20127;-59
2023/06/29 08:52:56;;;;;;;4.65;2.45;;;17.80;99.90;;;;;;5050209;28;20082;-60
2023/06/29 08:55:23;;;;;;;5.10;2.70;;;17.80;99.90;;;;;;5050130;28;20091;-60
2023/06/29 08:57:53;;;;;;;5.18;2.58;;;17.80;99.90;;;;;;5067465;28;20064;-60
2023/06/29 09:00:20;;;;;;;9.27;2.58;;;17.80;99.90;;;;;;5050234;28;20041;-59
2023/06/29 09:02:48;;;;;;;5.68;3.00;;;17.90;99.90;;;;;;5048123;28;20082;-59
2023/06/29 09:05:16;;;;;;;5.72;2.20;;;18.00;99.90;;;;;;5049850;28;20518;-59
2023/06/29 09:07:43;;;;;;;5.97;2.05;;;18.00;99.90;;;;;;5049444;28;20045;-59
2023/06/29 09:10:10;;;;;;;3.33;2.22;;;18.10;99.90;;;;;;5067151;28;20072;-60
2023/06/29 09:12:37;;;;;;;4.28;2.33;;;18.10;99.90;;;;;;5050209;28;20048;-60
2023/06/29 09:15:10;;;;;;;4.95;1.80;;;18.10;99.90;;;;;;5064786;28;20049;-60
2023/06/29 09:17:36;;;;;;;4.60;2.47;;;18.10;99.90;;;;;;5067232;28;20122;-60
2023/06/29 09:20:11;;;;;;;5.07;2.40;;;18.20;99.90;;;;;;5067497;28;20094;-58
2023/06/29 09:22:40;;;;;;;6.18;2.67;;;18.30;99.90;;;;;;5071408;28;20037;-61
2023/06/29 09:25:09;;;;;;;2.88;2.20;;;18.30;99.90;;;;;;5053355;28;20053;-59
2023/06/29 09:27:38;;;;;;;4.38;2.50;;;18.40;99.90;;;;;;5068469;28;20052;-58
2023/06/29 09:30:06;;;;;;;7.32;2.60;;;18.40;99.90;;;;;;5071150;28;20045;-58
2023/06/29 09:32:37;;;;;;;2.72;2.40;;;18.50;99.90;;;;;;5071598;28;20110;-59
2023/06/29 09:35:08;;;;;;;3.22;2.38;;;18.50;99.90;;;;;;5060814;28;20090;-59
2023/06/29 09:37:35;;;;;;;9.57;2.20;;;18.50;99.90;;;;;;5052538;28;20053;-58
2023/06/29 09:40:09;;;;;;;7.68;2.22;;;18.50;99.90;;;;;;5068555;28;20040;-58
2023/06/29 09:42:36;;;;;;;4.55;2.40;;;18.40;99.90;;;;;;5071141;28;20041;-57
2023/06/29 09:45:07;;;;;;;6.40;1.85;;;18.40;99.90;;;;;;5070690;28;20054;-58
2023/06/29 09:47:34;;;;;;;3.78;2.30;;;18.40;99.90;;;;;;5070403;28;20446;-57
2023/06/29 09:50:05;;;;;;;6.28;2.80;;;18.40;99.90;;;;;;5067493;28;20056;-59
2023/06/29 09:52:32;;;;;;;3.13;1.92;;;18.40;99.90;;;;;;5036362;28;20072;-58
2023/06/29 09:54:59;;;;;;;3.03;1.80;;;18.40;99.90;;;;;;5036200;28;20047;-55
2023/06/29 09:57:26;;;;;;;2.47;1.67;;;18.50;99.90;;;;;;5070056;28;20040;-57
2023/06/29 09:59:53;;;;;;;2.05;1.30;;;18.60;99.90;;;;;;5051132;28;20059;-60
2023/06/29 10:02:20;;;;;;;1.55;1.20;;;18.70;99.90;;;;;;5052080;28;20086;-58
2023/06/29 10:04:47;;;;;;;1.92;1.30;;;18.80;99.90;;;;;;5051198;28;20052;-58
2023/06/29 10:07:16;;;;;;;2.50;1.40;;;18.90;99.90;;;;;;5068747;28;20071;-57
2023/06/29 10:09:46;;;;;;;2.95;1.50;;;19.10;99.90;;;;;;5035781;28;20155;-59
2023/06/29 10:12:14;;;;;;;1.60;1.23;;;19.40;99.90;;;;;;5069957;28;20512;-61
2023/06/29 10:14:44;;;;;;;3.03;1.00;;;19.50;99.90;;;;;;5069872;28;20052;-57
2023/06/29 10:17:15;;;;;;;3.60;1.23;;;19.50;99.90;;;;;;5069567;28;20192;-57
2023/06/29 10:19:42;;;;;;;3.72;1.42;;;19.60;99.90;;;;;;5069809;28;20087;-58
2023/06/29 10:22:11;;;;;;;4.25;1.33;;;19.60;99.90;;;;;;5052069;28;20044;-61
2023/06/29 10:24:46;;;;;;;2.92;0.90;;;19.50;99.90;;;;;;5051921;28;20496;-58
2023/06/29 10:27:13;;;;;;;1.13;0.90;;;19.30;99.90;;;;;;5051687;28;20084;-58
2023/06/29 10:29:46;;;;;;;4.28;1.42;;;19.20;99.90;;;;;;5048630;28;20357;-59
2023/06/29 10:32:31;;;;;;;2.13;1.48;;;19.20;99.90;;;;;;5060194;28;20044;-57
2023/06/29 10:35:01;;;;;;;1.83;1.33;;;19.30;99.90;;;;;;5068125;28;20136;-57
2023/06/29 10:37:37;;;;;;;2.67;1.48;;;19.60;99.90;;;;;;5069310;28;20578;-58
2023/06/29 10:40:15;;;;;;;0.88;0.82;;;19.80;99.90;;;;;;5070092;28;20080;-57
2023/06/29 10:42:42;;;;;;;2.92;0.80;;;19.80;99.90;;;;;;5069786;28;20068;-57
2023/06/29 10:45:09;;;;;;;1.52;0.90;;;19.70;99.90;;;;;;5070065;28;20044;-56
2023/06/29 10:47:39;;;;;;;2.60;1.67;;;19.60;99.90;;;;;;5070029;28;20044;-58
2023/06/29 10:50:10;;;;;;;4.15;1.20;;;19.70;99.90;;;;;;5069806;28;20049;-59
2023/06/29 10:52:37;;;;;;;1.23;1.13;;;19.90;99.90;;;;;;5070084;28;20044;-57
2023/06/29 10:55:22;;;;;;;1.95;1.35;;;19.90;99.90;;;;;;5070175;28;20490;-57
2023/06/29 10:57:58;;;;;;;1.30;1.20;;;20.00;99.90;;;;;;5052336;28;20063;-57
2023/06/29 11:00:26;;;;;;;1.52;1.05;;;20.00;99.90;;;;;;5069651;28;20045;-59
2023/06/29 11:02:53;;;;;;;1.67;0.98;;;20.00;99.90;;;;;;5051422;28;20047;-58
2023/06/29 11:05:20;;;;;;;2.70;1.33;;;20.10;99.90;;;;;;5069736;28;20083;-59
2023/06/29 11:07:49;;;;;;;7.00;2.03;;;20.20;99.90;;;;;;5069171;28;20044;-58
2023/06/29 11:10:20;;;;;;;7.65;1.70;;;20.30;99.90;;;;;;5069142;28;20044;-58
2023/06/29 11:12:51;;;;;;;3.95;1.65;;;20.30;99.90;;;;;;5069465;28;20044;-58
2023/06/29 11:15:18;;;;;;;5.30;1.85;;;20.40;99.90;;;;;;5041014;28;20231;-57
2023/06/29 11:17:49;;;;;;;2.75;1.52;;;20.40;99.90;;;;;;5069268;28;20433;-59
2023/06/29 11:20:21;;;;;;;2.13;1.92;;;20.40;99.90;;;;;;5051906;28;20048;-58
2023/06/29 11:22:48;;;;;;;3.42;1.60;;;20.50;99.90;;;;;;5069218;28;20526;-59
2023/06/29 11:25:15;;;;;;;1.70;1.30;;;20.60;99.90;;;;;;5067075;28;20103;-58
2023/06/29 11:27:43;;;;;;;1.85;1.23;;;20.60;99.90;;;;;;5068262;28;20068;-57
2023/06/29 11:30:10;;;;;;;4.47;1.15;;;20.70;99.90;;;;;;5066034;28;20048;-58
2023/06/29 11:32:37;;;;;;;4.35;1.60;;;20.70;99.90;;;;;;5068354;28;20403;-59
2023/06/29 11:35:06;;;;;;;2.58;1.60;;;20.80;99.90;;;;;;5068482;28;20139;-58
2023/06/29 11:37:35;;;;;;;7.75;1.30;;;20.90;99.90;;;;;;5065967;28;20041;-59
2023/06/29 11:40:07;;;;;;;6.13;1.35;;;21.00;99.90;;;;;;5042906;28;20048;-58
2023/06/29 11:42:35;;;;;;;3.22;1.70;;;21.10;99.90;;;;;;5061930;28;20102;-56
2023/06/29 11:45:06;;;;;;;3.47;1.77;;;21.10;99.90;;;;;;5064543;28;20052;-58
2023/06/29 11:47:33;;;;;;;1.77;1.02;;;21.10;99.90;;;;;;5068063;28;20545;-59
2023/06/29 11:50:00;;;;;;;7.45;1.40;;;21.10;99.90;;;;;;5067886;28;20496;-58
2023/06/29 11:52:30;;;;;;;1.90;1.38;;;21.20;99.90;;;;;;5050329;28;20064;-58
2023/06/29 11:55:04;;;;;;;3.55;1.17;;;21.20;99.90;;;;;;5034307;28;20106;-58
2023/06/29 11:57:35;;;;;;;1.55;1.35;;;21.30;99.90;;;;;;5068226;28;20071;-58
2023/06/29 12:00:09;;;;;;;6.30;1.00;;;21.50;99.90;;;;;;5067858;28;20070;-58
2023/06/29 12:02:36;;;;;;;4.60;0.90;;;21.40;99.90;;;;;;5065401;28;20087;-58
2023/06/29 12:05:07;;;;;;;1.83;1.17;;;21.40;99.90;;;;;;5067901;28;20480;-58
2023/06/29 12:07:41;;;;;;;3.97;1.10;;;21.50;99.90;;;;;;5050147;28;20131;-61
2023/06/29 12:10:09;;;;;;;2.72;0.95;;;21.40;99.90;;;;;;5067605;28;20044;-58
2023/06/29 12:12:37;;;;;;;3.08;1.40;;;21.40;99.90;;;;;;5068180;28;20145;-56
2023/06/29 12:15:17;;;;;;;2.88;1.25;;;21.70;99.90;;;;;;5059704;28;20050;-57
2023/06/29 12:17:48;;;;;;;3.03;1.30;;;21.90;99.90;;;;;;5065515;28;20054;-58
2023/06/29 12:20:21;;;;;;;4.03;1.00;;;22.10;99.90;;;;;;5068083;28;20071;-57
2023/06/29 12:22:50;;;;;;;2.58;0.95;;;22.20;99.90;;;;;;5067788;28;20123;-58
2023/06/29 12:25:18;;;;;;;4.68;1.20;;;22.30;99.90;;;;;;5065443;28;20056;-58
2023/06/29 12:27:48;;;;;;;1.13;0.95;;;22.30;99.90;;;;;;5067691;28;20048;-57
2023/06/29 12:30:17;;;;;;;3.22;1.05;;;22.40;99.90;;;;;;5066874;28;20051;-60
2023/06/29 12:32:50;;;;;;;2.47;1.10;;;22.50;99.90;;;;;;5066173;28;20533;-56
2023/06/29 12:35:18;;;;;;;3.90;1.45;;;22.50;99.90;;;;;;5057077;28;20051;-56
2023/06/29 12:37:45;;;;;;;3.38;1.15;;;22.40;99.90;;;;;;5067282;28;20106;-58
2023/06/29 12:40:13;;;;;;;5.47;1.20;;;22.30;99.90;;;;;;5067201;28;20052;-58
2023/06/29 12:42:40;;;;;;;3.80;1.27;;;22.20;99.90;;;;;;5067184;28;20036;-56
2023/06/29 12:45:07;;;;;;;1.65;1.02;;;22.10;99.90;;;;;;5061853;28;20084;-57